^^
Datos históricos de la estación: Murcia-Puente Tocinos
Diario Informe para Diciembre 19, 2019 Unidades:  Ingés    Métrico   Ambas
Diario Semanal Mensual Anual
  Máxima: Mínima: Promedio:
Temperatura: 54.5 °F 44.1 °F 49.3 °F
Punto de rocio: 45.7 °F 37.2 °F 41.9 °F
Humedad: 85.5% 65% 76%
Velocidad viento: 8.1mph 0mph 3.5mph
Racha viento: 14mph - -
Viento- - SSO
Presión: 30.1 in 29.8 in -
Precipitación: 0 in    
 
 
Tabla de datos para Diciembre 19, 2019
Hora Temperatura Punto de rocio Presión Viento Velocidad viento Racha viento Humedad Intensidad lluvia(por hora) Nubes
00:04 49.5 °F 43.2 °F 30.1 in SSO 3.6 mph 7 mph 78.5% 0 in
00:09 49.5 °F 43.2 °F 30.1 in Sur 4 mph 6 mph 79% 0 in
00:14 49.5 °F 43.2 °F 30.1 in SSE 3.5 mph 6 mph 79% 0 in
00:19 49.3 °F 43 °F 30.1 in SSE 3.1 mph 5 mph 79% 0 in
00:24 49.1 °F 43 °F 30.1 in Sur 3 mph 5 mph 79.3% 0 in
00:29 49.1 °F 43.2 °F 30.1 in SSO 2.9 mph 5.2 mph 80% 0 in
00:34 49.1 °F 43.2 °F 30.1 in SSE 3 mph 5 mph 80% 0 in
00:39 48.9 °F 43 °F 30.1 in Sur 3.1 mph 5.4 mph 80% 0 in
00:44 48.9 °F 43 °F 30.1 in Sur 3.4 mph 6.2 mph 80% 0 in
00:49 48.7 °F 42.8 °F 30.1 in Sur 3.6 mph 6.2 mph 80% 0 in
00:54 48.7 °F 42.8 °F 30.1 in Sur 3.8 mph 6 mph 80% 0 in
00:59 48.7 °F 42.8 °F 30.1 in SSO 4 mph 6.2 mph 80.2% 0 in
01:04 48.7 °F 43.2 °F 30.1 in SSO 4 mph 8.1 mph 80.9% 0 in
01:09 48.6 °F 43 °F 30.1 in SSO 4 mph 8.1 mph 80.8% 0 in
01:14 48.6 °F 43 °F 30.1 in SSO 4.3 mph 8.1 mph 81% 0 in
01:19 48.6 °F 43 °F 30.1 in SSO 4.7 mph 8 mph 81% 0 in
01:24 48.6 °F 43 °F 30.1 in SSO 4.5 mph 7.4 mph 81% 0 in
01:29 48.4 °F 42.6 °F 30.1 in Sur 4.3 mph 7.4 mph 80.4% 0 in
01:34 48.4 °F 42.6 °F 30.1 in SSE 4.3 mph 7 mph 80.2% 0 in
01:39 48.2 °F 42.4 °F 30.1 in Sur 4.3 mph 6 mph 80.7% 0 in
01:44 48 °F 42.4 °F 30.1 in Sur 3.7 mph 5.2 mph 80.8% 0 in
01:49 48 °F 42.4 °F 30.1 in SSE 3.1 mph 5 mph 81% 0 in
01:54 47.8 °F 42.3 °F 30.1 in Sur 3.1 mph 5.4 mph 81% 0 in
01:59 47.7 °F 42.1 °F 30 in SSO 3.1 mph 6 mph 81% 0 in
02:04 47.7 °F 42.1 °F 30 in SO 3.6 mph 6 mph 81% 0 in
02:09 47.7 °F 41.9 °F 30 in Sur 4 mph 6 mph 80.4% 0 in
02:14 47.7 °F 41.7 °F 30 in SSE 3.5 mph 5 mph 80% 0 in
02:19 47.7 °F 41.7 °F 30 in SSE 2.9 mph 5.9 mph 80% 0 in
02:24 47.5 °F 41.5 °F 30 in SSE 2.9 mph 6 mph 80% 0 in
02:29 47.1 °F 41.2 °F 30 in SSE 2.9 mph 6 mph 80% 0 in
02:34 46.8 °F 41.2 °F 30 in Sur 3.2 mph 6.9 mph 80.4% 0 in
02:39 46.8 °F 41 °F 30.1 in Sur 3.6 mph 8.1 mph 80.4% 0 in
02:44 46.6 °F 40.5 °F 30.1 in Sur 3.8 mph 8 mph 79.5% 0 in
02:49 46.6 °F 40.3 °F 30.1 in SSE 4 mph 5.9 mph 78.9% 0 in
02:54 46.6 °F 40.1 °F 30.1 in SSE 4 mph 6.9 mph 78% 0 in
02:59 46.6 °F 40.1 °F 30.1 in Sur 4 mph 7 mph 78% 0 in
03:04 46.4 °F 39.9 °F 30.1 in Sur 4 mph 6 mph 78% 0 in
03:09 46.6 °F 40.1 °F 30.1 in SSE 4 mph 6.2 mph 78% 0 in
03:14 46.4 °F 39.9 °F 30.1 in SSE 4 mph 6.9 mph 78% 0 in
03:19 46.2 °F 40.1 °F 30.1 in SE 4 mph 7 mph 78.6% 0 in
03:24 46 °F 39.9 °F 30.1 in SSO 3.5 mph 5.4 mph 79% 0 in
03:29 46 °F 40.1 °F 30 in OSO 3.1 mph 6 mph 79.6% 0 in
03:34 46 °F 39.9 °F 30 in SO 3.1 mph 5 mph 79% 0 in
03:39 46 °F 39.7 °F 30 in SO 3.1 mph 5 mph 78.6% 0 in
03:44 46 °F 39.6 °F 30 in OSO 2.7 mph 7.4 mph 77.7% 0 in
03:49 46 °F 39 °F 30 in OSO 2.4 mph 7 mph 76.4% 0 in
03:54 45.9 °F 38.5 °F 30.1 in SO 2.7 mph 7 mph 75.1% 0 in
03:59 46 °F 38.8 °F 30.1 in SE 3.1 mph 6.2 mph 76% 0 in
04:04 45.9 °F 39.2 °F 30.1 in SSE 3.4 mph 8.1 mph 77.6% 0 in
04:09 45.5 °F 39 °F 30.1 in Sur 3.6 mph 8 mph 78% 0 in
04:14 45.1 °F 38.8 °F 30.1 in Sur 4.4 mph 9.7 mph 78% 0 in
04:19 45 °F 38.7 °F 30.1 in SSE 5.2 mph 10 mph 78.5% 0 in
04:24 44.6 °F 38.7 °F 30.1 in SSE 5.7 mph 10.4 mph 79.4% 0 in
04:29 44.2 °F 38.7 °F 30.1 in Sur 6.2 mph 10 mph 80.7% 0 in
04:34 44.2 °F 38.8 °F 30.1 in Sur 6 mph 8.1 mph 81.2% 0 in
04:39 44.2 °F 39 °F 30.1 in SO 5.9 mph 8 mph 81.7% 0 in
04:44 44.4 °F 39 °F 30.1 in SSO 4.7 mph 7 mph 81% 0 in
04:49 44.4 °F 38.7 °F 30.1 in SSO 3.6 mph 5 mph 80.3% 0 in
04:54 44.6 °F 38.8 °F 30.1 in SSO 3.2 mph 5 mph 79.9% 0 in
04:59 45 °F 38.7 °F 30 in Sur 2.9 mph 6.2 mph 79% 0 in
05:04 45 °F 38.7 °F 30 in SO 3 mph 6 mph 78.7% 0 in
05:09 45 °F 38.5 °F 30 in OSO 3.1 mph 5 mph 78% 0 in
05:14 45 °F 38.3 °F 30 in OSO 3.1 mph 5 mph 77.2% 0 in
05:19 44.8 °F 38.1 °F 30 in SO 3.1 mph 5.2 mph 77% 0 in
05:24 44.8 °F 37.9 °F 30.1 in SO 3.1 mph 5 mph 77% 0 in
05:29 45 °F 38.1 °F 30.1 in Sur 3.1 mph 5.8 mph 77% 0 in
05:34 45.1 °F 38.3 °F 30.1 in SE 3.1 mph 6 mph 77% 0 in
05:39 45.1 °F 38.3 °F 30.1 in SSE 3.1 mph 6.4 mph 77% 0 in
05:44 45 °F 38.3 °F 30 in SE 3.7 mph 7.4 mph 77.5% 0 in
05:49 44.4 °F 38.1 °F 30 in SSE 4.3 mph 8.1 mph 78.5% 0 in
05:54 44.2 °F 38.1 °F 30 in Sur 4.5 mph 8 mph 79% 0 in
05:59 44.1 °F 37.9 °F 30 in SSO 4.7 mph 6 mph 79% 0 in
06:04 44.2 °F 38.1 °F 30 in Sur 4.3 mph 6.9 mph 79% 0 in
06:09 44.2 °F 38.1 °F 30 in Sur 4 mph 8.1 mph 79% 0 in
06:14 44.4 °F 37.9 °F 30 in Sur 4.6 mph 8.1 mph 78% 0 in
06:19 44.4 °F 37.9 °F 30 in SO 5.2 mph 8 mph 78% 0 in
06:24 44.6 °F 37.9 °F 30 in SO 4.3 mph 8.5 mph 77.6% 0 in
06:29 45 °F 37.9 °F 30 in SO 3.6 mph 9.2 mph 76.5% 0 in
06:34 45 °F 37.9 °F 30 in SSO 4.5 mph 9 mph 76% 0 in
06:39 45.1 °F 37.8 °F 30.1 in SSO 5.2 mph 7 mph 75% 0 in
06:44 45.1 °F 37.4 °F 30.1 in SSO 4.7 mph 7.4 mph 74.3% 0 in
06:49 45.1 °F 37.2 °F 30.1 in Sur 4.3 mph 7 mph 74% 0 in
06:54 45.1 °F 37.6 °F 30.1 in Sur 4.2 mph 6 mph 74.7% 0 in
06:59 45 °F 37.6 °F 30 in Sur 4 mph 6.9 mph 75% 0 in
07:04 45 °F 37.6 °F 30 in Sur 4.2 mph 7 mph 75.5% 0 in
07:09 44.8 °F 37.8 °F 30.1 in SSE 4.3 mph 7 mph 76% 0 in
07:14 44.8 °F 37.8 °F 30.1 in SSE 4.2 mph 6 mph 76.4% 0 in
07:19 44.6 °F 37.9 °F 30.1 in SSE 4 mph 6.4 mph 77.1% 0 in
07:24 44.4 °F 37.9 °F 30.1 in SSE 4 mph 7 mph 78% 0 in
07:29 44.2 °F 37.8 °F 30.1 in Sur 4 mph 7 mph 78% 0 in
07:34 44.2 °F 38.1 °F 30.1 in Sur 4.2 mph 7 mph 78.8% 0 in
07:39 44.2 °F 38.1 °F 30.1 in Sur 4.3 mph 7 mph 79% 0 in
07:44 44.2 °F 38.1 °F 30.1 in Sur 4.2 mph 6.9 mph 79% 0 in
07:49 44.4 °F 38.3 °F 30.1 in SSO 4 mph 7 mph 79% 0 in
07:54 44.8 °F 38.5 °F 30.1 in SSO 4.2 mph 6.2 mph 78.1% 0 in
07:59 45.1 °F 38.5 °F 30.1 in SSO 4.3 mph 6.2 mph 77.1% 0 in
08:04 45.5 °F 38.3 °F 30.1 in SSE 3.9 mph 6.4 mph 76.2% 0 in
08:09 45.5 °F 38.5 °F 30.1 in SSO 3.6 mph 8.1 mph 76% 0 in
08:14 45.5 °F 38.3 °F 30.1 in SSO 4.1 mph 8 mph 75.7% 0 in
08:19 45.7 °F 38.1 °F 30.1 in SSO 4.7 mph 7 mph 75% 0 in
08:24 45.9 °F 37.9 °F 30.1 in SO 4.5 mph 7 mph 74% 0 in
08:29 45.9 °F 37.9 °F 30.1 in SO 4.3 mph 7 mph 74% 0 in
08:34 45.9 °F 37.8 °F 30.1 in Sur 4 mph 6.9 mph 73.2% 0 in
08:39 45.9 °F 37.9 °F 30.1 in SE 3.6 mph 7 mph 74% 0 in
08:44 45.5 °F 37.9 °F 30.1 in SSE 3.9 mph 7 mph 74.9% 0 in
08:49 45.1 °F 38.1 °F 30.1 in SSE 4.3 mph 6 mph 76% 0 in
08:54 45 °F 38.1 °F 30.1 in SE 4 mph 6 mph 76.8% 0 in
08:59 44.8 °F 38.1 °F 30.1 in SSO 3.6 mph 5.9 mph 77.6% 0 in
09:04 44.8 °F 38.3 °F 30.1 in OSO 3.2 mph 6 mph 78% 0 in
09:09 45 °F 38.3 °F 30.1 in OSO 2.9 mph 9.7 mph 77.8% 0 in
09:14 45.1 °F 38.3 °F 30.1 in SSO 4 mph 10 mph 76.8% 0 in
09:19 45.5 °F 38.1 °F 30.1 in Sur 5.2 mph 9.2 mph 75.6% 0 in
09:24 45.9 °F 38.1 °F 30.1 in SSE 5.7 mph 10.7 mph 74.4% 0 in
09:29 46 °F 38.3 °F 30.1 in SE 6.2 mph 12.5 mph 74.2% 0 in
09:34 45.9 °F 38.5 °F 30.1 in SE 6.8 mph 13 mph 75.4% 0 in
09:39 45.5 °F 38.5 °F 30.1 in SE 7.4 mph 13 mph 76.3% 0 in
09:44 45.3 °F 38.5 °F 30 in ESE 6.8 mph 9 mph 77% 0 in
09:49 45.3 °F 38.5 °F 30 in Este 6.2 mph 9 mph 77% 0 in
09:54 45.3 °F 38.7 °F 30 in ENE 5.5 mph 9 mph 77% 0 in
09:59 45.7 °F 38.8 °F 30 in NE 4.7 mph 7 mph 77% 0 in
10:04 46 °F 39.2 °F 30 in NO 4.1 mph 10.4 mph 77% 0 in
10:09 46.2 °F 39.4 °F 30 in NO 3.6 mph 10 mph 76.8% 0 in
10:14 46.4 °F 39.4 °F 30 in NNO 4.5 mph 9 mph 76.6% 0 in
10:19 46.4 °F 39.6 °F 30 in NNO 5.4 mph 9.2 mph 77% 0 in
10:24 46.6 °F 39.7 °F 30 in ONO 5 mph 9.2 mph 77% 0 in
10:29 46.8 °F 39.9 °F 30 in ONO 4.7 mph 11.8 mph 77% 0 in
10:34 46.9 °F 39.9 °F 30 in Oeste 5.5 mph 12 mph 76.4% 0 in
10:39 47.3 °F 39.9 °F 30 in Oeste 6.2 mph 9 mph 75.2% 0 in
10:44 47.7 °F 39.9 °F 30 in Oeste 4.5 mph 7 mph 74% 0 in
10:49 48 °F 39.7 °F 30 in SO 3.1 mph 5 mph 72.7% 0 in
10:54 48.2 °F 39.6 °F 30 in OSO 3 mph 5 mph 71.7% 0 in
10:59 48.6 °F 39.6 °F 30 in ONO 2.9 mph 5 mph 71% 0 in
11:04 48.7 °F 39.7 °F 30 in NNO 2.3 mph 4.6 mph 71% 0 in
11:09 48.9 °F 39.9 °F 30 in NNE 1.8 mph 5.2 mph 71% 0 in
11:14 49.1 °F 39.7 °F 30 in NNO 2.1 mph 5 mph 70.1% 0 in
11:19 49.3 °F 39.9 °F 30 in NNO 2.4 mph 5 mph 70% 0 in
11:24 49.5 °F 40.1 °F 30 in ONO 2.2 mph 6.4 mph 70% 0 in
11:29 49.6 °F 40.3 °F 30 in Oeste 2 mph 7 mph 70% 0 in
11:34 50 °F 40.6 °F 30 in SSO 2.5 mph 7 mph 70% 0 in
11:39 50.5 °F 40.6 °F 30 in SSE 3.1 mph 9.2 mph 68.9% 0 in
11:44 50.9 °F 40.6 °F 30 in SSE 4.7 mph 12.7 mph 68% 0 in
11:49 50.9 °F 41 °F 30 in SSE 6.2 mph 14 mph 68.4% 0 in
11:54 50.5 °F 41 °F 30 in SSE 7.1 mph 14 mph 69.8% 0 in
11:59 50.2 °F 41 °F 30 in SSO 8.1 mph 13 mph 70.5% 0 in
12:04 50.2 °F 40.8 °F 30 in SSO 6.9 mph 9 mph 70% 0 in
12:09 50.4 °F 41 °F 30 in SO 5.9 mph 8 mph 70% 0 in
12:14 50.7 °F 41 °F 30 in SO 5 mph 7 mph 69.1% 0 in
12:19 51.3 °F 41.4 °F 30 in SO 4 mph 7 mph 68.9% 0 in
12:24 51.4 °F 41.2 °F 30 in SSO 4 mph 7 mph 68.1% 0 in
12:29 51.6 °F 41.2 °F 30 in Sur 4 mph 7.4 mph 67.4% 0 in
12:34 52 °F 41.2 °F 30 in SSE 4.4 mph 8.1 mph 66.4% 0 in
12:39 52.2 °F 41 °F 30 in SSO 4.7 mph 8 mph 66% 0 in
12:44 52.2 °F 41 °F 30 in SO 4.3 mph 6 mph 65.5% 0 in
12:49 52.3 °F 41 °F 30 in OSO 4 mph 6.2 mph 65% 0 in
12:54 52.5 °F 41.2 °F 30 in SSO 3.8 mph 6 mph 65% 0 in
12:59 52.7 °F 41.4 °F 30 in SSO 3.6 mph 6.9 mph 65.4% 0 in
13:04 52.7 °F 41.4 °F 30 in SSO 4 mph 7 mph 65.1% 0 in
13:09 52.9 °F 41.7 °F 30 in Sur 4.3 mph 7 mph 65.7% 0 in
13:14 52.9 °F 41.5 °F 30 in SSE 4.3 mph 8.1 mph 65.1% 0 in
13:19 53.1 °F 41.5 °F 30 in SSE 4.3 mph 8 mph 65% 0 in
13:24 53.1 °F 41.9 °F 30 in Sur 4.5 mph 6.2 mph 65.9% 0 in
13:29 53.1 °F 41.9 °F 30 in SSO 4.7 mph 6 mph 66% 0 in
13:34 53.1 °F 41.9 °F 30 in Sur 4.2 mph 6 mph 66% 0 in
13:39 53.1 °F 42.1 °F 30 in Sur 3.6 mph 5.4 mph 66% 0 in
13:44 53.1 °F 42.1 °F 30 in SE 3.4 mph 6 mph 66% 0 in
13:49 53.2 °F 42.3 °F 30 in SSE 3.1 mph 6 mph 66% 0 in
13:54 53.2 °F 41.9 °F 30 in SSE 3.4 mph 6 mph 65.3% 0 in
13:59 53.4 °F 41.9 °F 30 in ESE 3.6 mph 5 mph 65.2% 0 in
14:04 53.4 °F 41.9 °F 30 in Este 3 mph 5 mph 65% 0 in
14:09 53.6 °F 42.1 °F 30 in Este 2.4 mph 3.5 mph 65.2% 0 in
14:14 53.8 °F 42.4 °F 30 in ONO 2.1 mph 4.7 mph 65.4% 0 in
14:19 53.8 °F 43.2 °F 30 in North 1.8 mph 5 mph 67.1% 0 in
14:24 53.8 °F 43.3 °F 30 in North 2.4 mph 6.2 mph 67.6% 0 in
14:29 53.4 °F 43.5 °F 30 in ENE 2.9 mph 6 mph 69% 0 in
14:34 53.4 °F 43.7 °F 30 in ENE 2.6 mph 5 mph 69.3% 0 in
14:39 53.4 °F 43.9 °F 30 in NE 2.4 mph 5 mph 70% 0 in
14:44 53.2 °F 44.1 °F 29.9 in NE 2.4 mph 5 mph 71% 0 in
14:49 53.2 °F 44.2 °F 29.9 in Este 2.4 mph 5 mph 71.4% 0 in
14:54 53.2 °F 44.2 °F 29.9 in Este 2.4 mph 5 mph 71.7% 0 in
14:59 53.2 °F 44.4 °F 29.9 in ENE 2.4 mph 5 mph 72% 0 in
15:04 53.1 °F 44.1 °F 29.9 in NE 2.1 mph 5 mph 71.5% 0 in
15:09 53.2 °F 44.1 °F 29.9 in Oeste 1.8 mph 3.5 mph 71% 0 in
15:14 53.2 °F 44.2 °F 29.9 in ONO 1.8 mph 3.1 mph 71.5% 0 in
15:19 53.2 °F 44.1 °F 29.9 in NNO 1.8 mph 4.6 mph 70.8% 0 in
15:24 53.2 °F 43.7 °F 29.9 in NE 1.8 mph 5 mph 70.2% 0 in
15:29 53.2 °F 43.9 °F 29.9 in North 1.8 mph 6.4 mph 70.2% 0 in
15:34 53.4 °F 44.2 °F 29.9 in ONO 2.4 mph 7 mph 71.1% 0 in
15:39 53.4 °F 44.4 °F 29.9 in SSO 2.9 mph 8.5 mph 71.8% 0 in
15:44 53.4 °F 44.1 °F 29.9 in SSO 3.6 mph 9 mph 70.6% 0 in
15:49 53.6 °F 44.1 °F 29.9 in SSO 4.3 mph 7 mph 70% 0 in
15:54 54.1 °F 44.2 °F 29.9 in SSO 4.3 mph 7 mph 69.4% 0 in
15:59 54.3 °F 44.6 °F 29.9 in OSO 4.3 mph 6 mph 70% 0 in
16:04 54.5 °F 45.1 °F 29.9 in SSO 3.7 mph 6 mph 70.6% 0 in
16:09 54.5 °F 45.3 °F 29.9 in SSO 3.1 mph 5 mph 71% 0 in
16:14 54.5 °F 45.3 °F 29.9 in Oeste 2.7 mph 5.8 mph 71% 0 in
16:19 54.3 °F 45.1 °F 29.9 in SSO 2.4 mph 6 mph 71% 0 in
16:24 54.1 °F 45 °F 29.9 in SSO 2.7 mph 6 mph 71% 0 in
16:29 54.1 °F 45 °F 29.9 in OSO 3.1 mph 5 mph 71% 0 in
16:34 54.1 °F 45 °F 29.9 in SSO 2.7 mph 6.9 mph 71% 0 in
16:39 54.1 °F 45 °F 29.9 in SSE 2.4 mph 7 mph 71% 0 in
16:44 54.1 °F 45 °F 29.9 in SSE 3 mph 7 mph 71% 0 in
16:49 54.1 °F 45 °F 29.9 in SSE 3.6 mph 6.2 mph 71% 0 in
16:54 54.1 °F 45.1 °F 29.9 in SE 3.9 mph 6 mph 71.7% 0 in
16:59 54.1 °F 45.1 °F 29.9 in SO 4.3 mph 6 mph 71.6% 0 in
17:04 54.1 °F 45 °F 29.9 in OSO 3.5 mph 6 mph 71.3% 0 in
17:09 54.1 °F 45.3 °F 29.9 in SSO 2.9 mph 5 mph 72% 0 in
17:14 54.1 °F 45.1 °F 29.9 in Sur 2.1 mph 3.6 mph 72% 0 in
17:19 54 °F 45.1 °F 29.9 in ESE 1.4 mph 4 mph 72% 0 in
17:24 54 °F 45.1 °F 29.9 in ESE 1.6 mph 4.6 mph 72% 0 in
17:29 54 °F 45.1 °F 29.9 in ONO 1.8 mph 5 mph 72% 0 in
17:34 54 °F 45.3 °F 29.9 in ONO 1.8 mph 3 mph 72.5% 0 in
17:39 54 °F 45.5 °F 29.9 in ONO 1.8 mph 2.4 mph 73% 0 in
17:44 54 °F 45.5 °F 29.9 in ONO 0.9 mph 2.9 mph 73% 0 in
17:49 53.8 °F 45.3 °F 29.9 in Calm   3.5 mph 73% 0 in
17:54 53.8 °F 45.3 °F 29.9 in ONO 0.9 mph 3 mph 73% 0 in
17:59 53.6 °F 45.3 °F 29.9 in ONO 1.8 mph 2.4 mph 73.5% 0 in
18:04 53.4 °F 45.3 °F 29.9 in ONO 1.6 mph 2 mph 74% 0 in
18:09 53.4 °F 45.3 °F 29.9 in ONO 1.4 mph 2.9 mph 74% 0 in
18:14 53.4 °F 45.3 °F 29.9 in SE 1.6 mph 4.7 mph 74% 0 in
18:19 53.2 °F 45.1 °F 29.9 in ESE 1.8 mph 5 mph 74% 0 in
18:24 53.1 °F 45.1 °F 29.9 in SE 2.1 mph 5.9 mph 74% 0 in
18:29 52.9 °F 44.8 °F 29.9 in SE 2.4 mph 6 mph 74% 0 in
18:34 52.7 °F 45 °F 29.9 in SSE 2.7 mph 6.2 mph 75% 0 in
18:39 52.5 °F 44.8 °F 29.9 in SSE 3.1 mph 6 mph 75% 0 in
18:44 52.5 °F 44.8 °F 29.9 in SE 3.1 mph 6 mph 75% 0 in
18:49 52.3 °F 44.6 °F 29.9 in ESE 3.1 mph 5 mph 75% 0 in
18:54 52.3 °F 44.6 °F 29.9 in ESE 2.5 mph 4 mph 75% 0 in
18:59 52.2 °F 44.6 °F 29.9 in ESE 2 mph 4 mph 75.2% 0 in
19:04 52.2 °F 44.8 °F 29.9 in ENE 1.7 mph 4.6 mph 76% 0 in
19:09 52 °F 44.6 °F 29.9 in NNE 1.4 mph 5 mph 76% 0 in
19:14 51.8 °F 45 °F 29.9 in NNE 1.6 mph 3.5 mph 77% 0 in
19:19 51.8 °F 44.8 °F 29.9 in NNE 1.8 mph 3.6 mph 77% 0 in
19:24 51.8 °F 44.8 °F 29.9 in NNO 1.9 mph 5.8 mph 77% 0 in
19:29 51.6 °F 44.8 °F 29.9 in NO 2 mph 6 mph 77.5% 0 in
19:34 51.3 °F 44.8 °F 29.9 in NO 2.5 mph 5 mph 78.4% 0 in
19:39 51.1 °F 44.8 °F 29.9 in NNO 2.9 mph 5.2 mph 79.2% 0 in
19:44 50.7 °F 44.8 °F 29.9 in NNE 2.6 mph 5.2 mph 80% 0 in
19:49 50.5 °F 45 °F 29.9 in North 2.4 mph 5 mph 81% 0 in
19:54 50.4 °F 45 °F 29.9 in Oeste 2.4 mph 5.2 mph 81.5% 0 in
19:59 50.4 °F 45.1 °F 29.9 in SO 2.4 mph 5.2 mph 82% 0 in
20:04 50.4 °F 45.3 °F 29.9 in OSO 2.8 mph 5 mph 83% 0 in
20:09 50.4 °F 45.5 °F 29.9 in Sur 3.1 mph 5 mph 83% 0 in
20:14 50.5 °F 45.7 °F 29.9 in SSE 3 mph 5 mph 83% 0 in
20:19 50.7 °F 45.7 °F 29.9 in SSE 2.9 mph 5 mph 83% 0 in
20:24 50.7 °F 45.5 °F 29.9 in Sur 2.6 mph 5.4 mph 82.2% 0 in
20:29 50.7 °F 45.1 °F 29.9 in Sur 2.4 mph 6.2 mph 81.6% 0 in
20:34 50.5 °F 45.1 °F 29.9 in Sur 3.2 mph 6 mph 81.8% 0 in
20:39 50.4 °F 45.1 °F 29.9 in ESE 4 mph 6.2 mph 82% 0 in
20:44 50.4 °F 45 °F 29.9 in SE 3.8 mph 6.9 mph 82% 0 in
20:49 50 °F 44.8 °F 29.9 in SSE 3.6 mph 7 mph 82.4% 0 in
20:54 49.8 °F 45 °F 29.9 in SSO 3.8 mph 7 mph 83% 0 in
20:59 50 °F 45.1 °F 29.9 in SSE 4 mph 7.4 mph 83% 0 in
21:04 50.2 °F 45.1 °F 29.9 in Sur 4.2 mph 8.5 mph 83% 0 in
21:09 50.4 °F 45.1 °F 29.9 in Sur 4.3 mph 9 mph 82.4% 0 in
21:14 50.4 °F 45.1 °F 29.9 in Sur 4.7 mph 8.1 mph 82% 0 in
21:19 50.5 °F 45.1 °F 29.9 in SSE 5.2 mph 8 mph 82% 0 in
21:24 50.5 °F 45.1 °F 29.9 in Sur 4.3 mph 6 mph 82% 0 in
21:29 50.5 °F 45.1 °F 29.9 in Sur 3.6 mph 5 mph 82% 0 in
21:34 50.7 °F 45.1 °F 29.9 in Oeste 3 mph 6.2 mph 81.2% 0 in
21:39 50.7 °F 45.1 °F 29.9 in OSO 2.4 mph 6.9 mph 81% 0 in
21:44 50.7 °F 45.1 °F 29.9 in Oeste 2.7 mph 7 mph 81% 0 in
21:49 50.7 °F 45.3 °F 29.9 in ONO 2.9 mph 5.8 mph 81.5% 0 in
21:54 50.5 °F 45.3 °F 29.9 in ONO 2.4 mph 6 mph 82% 0 in
21:59 50.5 °F 45.1 °F 29.9 in ONO 2 mph 3 mph 82% 0 in
22:04 50.5 °F 45.1 °F 29.9 in ONO 1.7 mph 3.5 mph 82% 0 in
22:09 50.5 °F 45.1 °F 29.9 in ONO 1.4 mph 5.2 mph 82% 0 in
22:14 50.5 °F 45.3 °F 29.9 in NO 1.9 mph 5 mph 82.5% 0 in
22:19 50.4 °F 45.3 °F 29.9 in NO 2.4 mph 5 mph 83% 0 in
22:24 50.2 °F 45.1 °F 29.9 in NO 2.2 mph 5 mph 83.2% 0 in
22:29 49.8 °F 45.1 °F 29.9 in NO 2 mph 5.9 mph 84% 0 in
22:34 49.6 °F 45.1 °F 29.9 in ONO 2.8 mph 7.4 mph 84.5% 0 in
22:39 49.6 °F 45.3 °F 29.9 in Oeste 3.6 mph 7 mph 85% 0 in
22:44 49.6 °F 45.5 °F 29.9 in Sur 3.8 mph 8.5 mph 85.5% 0 in
22:49 49.8 °F 45.5 °F 29.9 in SE 4 mph 9 mph 85.1% 0 in
22:54 49.6 °F 45.3 °F 29.9 in SE 5 mph 9.2 mph 85% 0 in
22:59 49.6 °F 45.3 °F 29.9 in SE 5.9 mph 9 mph 85% 0 in
23:04 49.6 °F 45.3 °F 29.9 in SSO 5.2 mph 7.4 mph 85% 0 in
23:09 49.6 °F 45.3 °F 29.9 in Oeste 4.7 mph 9.2 mph 85% 0 in
23:14 49.6 °F 45.3 °F 29.9 in ONO 4.7 mph 9 mph 85% 0 in
23:19 49.6 °F 45.3 °F 29.9 in Oeste 4.7 mph 7 mph 85% 0 in
23:24 49.8 °F 45.5 °F 29.9 in Oeste 3.9 mph 6 mph 85% 0 in
23:29 49.8 °F 45.5 °F 29.8 in Oeste 3.1 mph 5 mph 85% 0 in
23:34 49.8 °F 45.5 °F 29.8 in NO 2.7 mph 6.9 mph 85% 0 in
23:39 49.8 °F 45.5 °F 29.8 in SE 2.4 mph 7 mph 85% 0 in
23:44 49.8 °F 45.5 °F 29.8 in OSO 2.7 mph 6 mph 85% 0 in
23:49 49.8 °F 45.5 °F 29.8 in OSO 2.9 mph 4 mph 85% 0 in
23:54 49.8 °F 45.5 °F 29.8 in OSO 2.2 mph 3.6 mph 85% 0 in
23:59 49.8 °F 45.7 °F 29.8 in ONO 1.4 mph 8.1 mph 85% 0 in
Murcia-Puente Tocinos, España
Compliments of Weather Underground - 3 mb

La estación de MeteoMurcia.com, publica sus datos en los siguientes proyectos:

Weather Underground PWS IMURCIAP2 Meteoclimatic www.awekas.at

W3Counter
Web Analytics